createdAt,value
2023-05-13T00:00:58.096Z,13.75
2023-05-13T00:06:03.121Z,12.00
2023-05-13T00:11:07.997Z,12.25
2023-05-13T00:16:12.906Z,11.75
2023-05-13T00:21:18.053Z,12.25
2023-05-13T00:26:23.353Z,13.25
2023-05-13T00:31:28.299Z,10.25
2023-05-13T00:36:33.266Z,13.50
2023-05-13T00:41:38.124Z,11.75
2023-05-13T00:46:43.156Z,13.00
2023-05-13T00:51:48.291Z,11.50
2023-05-13T00:56:58.217Z,10.50
2023-05-13T01:02:12.847Z,14.00
2023-05-13T01:07:23.917Z,10.75
2023-05-13T01:12:34.967Z,8.00
2023-05-13T01:17:49.048Z,8.75
2023-05-13T01:22:53.829Z,6.25
2023-05-13T01:27:59.407Z,12.50
2023-05-13T01:33:05.128Z,11.00
2023-05-13T01:38:10.722Z,9.00
2023-05-13T01:43:15.768Z,9.00
2023-05-13T01:48:20.589Z,8.00
2023-05-13T01:53:26.544Z,10.75
2023-05-13T01:58:31.775Z,10.25
2023-05-13T02:03:37.896Z,8.50
2023-05-13T02:08:43.011Z,11.25
2023-05-13T02:13:47.930Z,11.25
2023-05-13T02:18:52.763Z,10.00
2023-05-13T02:24:04.008Z,11.50
2023-05-13T02:29:10.401Z,8.25
2023-05-13T02:34:15.194Z,7.50
2023-05-13T02:39:23.722Z,9.00
2023-05-13T02:44:29.622Z,8.75
2023-05-13T02:49:35.000Z,6.75
2023-05-13T02:54:39.942Z,6.50
2023-05-13T02:59:45.083Z,7.50
2023-05-13T03:04:50.138Z,9.00
2023-05-13T03:09:55.399Z,6.00
2023-05-13T03:15:00.621Z,6.00
2023-05-13T03:20:05.574Z,5.00
2023-05-13T03:25:11.191Z,7.75
2023-05-13T03:30:24.434Z,6.00
2023-05-13T03:35:50.579Z,5.00
2023-05-13T03:41:00.490Z,6.00
2023-05-13T03:46:06.454Z,8.75
2023-05-13T03:51:11.472Z,6.25
2023-05-13T03:56:17.278Z,4.75
2023-05-13T04:01:24.189Z,6.50
2023-05-13T04:06:29.027Z,5.75
2023-05-13T04:11:34.339Z,8.50
2023-05-13T04:16:39.289Z,5.00
2023-05-13T04:21:44.120Z,7.50
2023-05-13T04:26:48.957Z,5.75
2023-05-13T04:31:55.550Z,6.00
2023-05-13T04:37:00.485Z,4.50
2023-05-13T04:42:05.335Z,3.25
2023-05-13T04:47:10.247Z,6.25
2023-05-13T04:52:15.268Z,4.50
2023-05-13T04:57:20.553Z,4.75
2023-05-13T05:02:25.557Z,5.00
2023-05-13T05:07:32.790Z,7.25
2023-05-13T05:12:39.447Z,5.25
2023-05-13T05:17:44.983Z,3.00
2023-05-13T05:22:51.556Z,5.00
2023-05-13T05:28:00.590Z,5.00
2023-05-13T05:33:05.712Z,6.00
2023-05-13T05:38:13.717Z,3.75
2023-05-13T05:43:19.042Z,5.00
2023-05-13T05:48:24.629Z,5.25
2023-05-13T05:53:30.277Z,3.25
2023-05-13T05:58:37.441Z,3.75
2023-05-13T06:03:43.328Z,3.50
2023-05-13T06:08:48.284Z,4.00
2023-05-13T06:13:56.184Z,5.25
2023-05-13T06:19:01.137Z,4.50
2023-05-13T06:24:06.300Z,4.50
2023-05-13T06:29:11.286Z,3.75
2023-05-13T06:34:18.052Z,3.50
2023-05-13T06:39:22.965Z,5.50
2023-05-13T06:44:28.779Z,2.25
2023-05-13T06:49:36.658Z,3.00
2023-05-13T06:54:41.800Z,3.75
2023-05-13T06:59:46.995Z,5.25
2023-05-13T07:04:52.182Z,4.25
2023-05-13T07:09:57.297Z,5.25
2023-05-13T07:15:02.151Z,4.50
2023-05-13T07:20:07.458Z,4.50
2023-05-13T07:25:12.442Z,4.75
2023-05-13T07:30:17.637Z,2.25
2023-05-13T07:35:22.672Z,4.75
2023-05-13T07:40:27.821Z,3.00
2023-05-13T07:45:32.777Z,4.50
2023-05-13T07:50:38.300Z,4.25
2023-05-13T07:55:43.295Z,4.25
2023-05-13T08:00:48.262Z,4.50
2023-05-13T08:05:53.511Z,1.75
2023-05-13T08:10:58.708Z,3.00
2023-05-13T08:16:04.979Z,3.75
2023-05-13T08:21:10.215Z,3.50
2023-05-13T08:26:15.499Z,4.00
2023-05-13T08:31:20.528Z,4.75
2023-05-13T08:36:28.597Z,3.25
2023-05-13T08:41:34.472Z,4.75
2023-05-13T08:46:39.920Z,5.25
2023-05-13T08:51:45.800Z,5.50
2023-05-13T08:56:51.777Z,3.00
2023-05-13T09:01:57.810Z,3.50
2023-05-13T09:07:05.120Z,8.25
2023-05-13T09:12:10.128Z,9.25
2023-05-13T09:17:15.086Z,9.25
2023-05-13T09:22:20.295Z,6.75
2023-05-13T09:27:48.875Z,7.50
2023-05-13T09:33:16.872Z,8.25
2023-05-13T09:38:33.983Z,8.25
2023-05-13T09:43:41.194Z,10.50
2023-05-13T09:48:45.963Z,7.50
2023-05-13T09:53:51.038Z,9.50
2023-05-13T09:58:56.140Z,8.25
2023-05-13T10:04:01.088Z,10.00
2023-05-13T10:09:07.385Z,9.00
2023-05-13T10:14:13.444Z,13.00
2023-05-13T10:19:19.081Z,7.25
2023-05-13T10:24:23.807Z,10.00
2023-05-13T10:29:30.458Z,10.75
2023-05-13T10:34:36.284Z,7.50
2023-05-13T10:40:03.994Z,9.00
2023-05-13T10:45:09.586Z,11.50
2023-05-13T10:50:42.773Z,11.50
2023-05-13T10:55:47.750Z,8.00
2023-05-13T11:00:52.870Z,9.25
2023-05-13T11:06:17.453Z,11.00
2023-05-13T11:11:29.581Z,13.00
2023-05-13T11:16:39.563Z,7.50
2023-05-13T11:21:44.396Z,10.00
2023-05-13T11:26:50.775Z,11.00
2023-05-13T11:32:00.288Z,12.00
2023-05-13T11:37:06.868Z,9.75
2023-05-13T11:42:12.633Z,8.25
2023-05-13T11:47:27.599Z,8.25
2023-05-13T11:52:32.947Z,6.75
2023-05-13T11:57:38.088Z,7.75
2023-05-13T12:02:43.004Z,7.50
2023-05-13T12:07:48.074Z,10.50
2023-05-13T12:12:53.785Z,8.00
2023-05-13T12:17:59.408Z,8.00
2023-05-13T12:23:05.726Z,9.50
2023-05-13T12:28:18.297Z,8.00
2023-05-13T12:33:24.198Z,7.50
2023-05-13T12:38:29.254Z,8.50
2023-05-13T12:43:35.414Z,7.75
2023-05-13T12:48:40.268Z,7.50
2023-05-13T12:53:45.346Z,6.00
2023-05-13T12:58:50.709Z,10.25
2023-05-13T13:03:55.954Z,8.75
2023-05-13T13:09:01.145Z,8.75
2023-05-13T13:14:06.976Z,8.00
2023-05-13T13:19:12.221Z,6.00
2023-05-13T13:24:17.148Z,8.75
2023-05-13T13:29:22.286Z,8.00
2023-05-13T13:34:27.500Z,6.00
2023-05-13T13:39:32.527Z,10.00
2023-05-13T13:44:39.248Z,7.50
2023-05-13T13:49:45.066Z,6.25
2023-05-13T13:54:50.453Z,6.75
2023-05-13T13:59:55.672Z,8.50
2023-05-13T14:05:00.541Z,11.75
2023-05-13T14:10:06.654Z,7.25
2023-05-13T14:15:13.587Z,7.75
2023-05-13T14:20:22.127Z,10.25
2023-05-13T14:25:27.546Z,11.50
2023-05-13T14:30:33.633Z,11.50
2023-05-13T14:35:42.684Z,8.75
2023-05-13T14:40:47.464Z,12.25
2023-05-13T14:45:52.506Z,8.25
2023-05-13T14:50:57.956Z,10.00
2023-05-13T14:56:03.074Z,10.00
2023-05-13T15:01:07.937Z,8.50
2023-05-13T15:06:12.952Z,12.25
2023-05-13T15:11:18.321Z,11.75
2023-05-13T15:16:24.033Z,8.00
2023-05-13T15:21:29.031Z,8.50
2023-05-13T15:26:34.198Z,11.25
2023-05-13T15:31:39.033Z,6.75
2023-05-13T15:36:43.837Z,8.50
2023-05-13T15:41:48.476Z,9.00
2023-05-13T15:46:53.329Z,8.50
2023-05-13T15:51:59.126Z,8.50
2023-05-13T15:57:03.956Z,11.00
2023-05-13T16:02:08.793Z,7.50
2023-05-13T16:07:13.546Z,8.75
2023-05-13T16:12:18.448Z,7.75
2023-05-13T16:17:23.814Z,10.75
2023-05-13T16:22:36.031Z,11.50
2023-05-13T16:27:41.544Z,9.75
2023-05-13T16:32:48.912Z,8.50
2023-05-13T16:37:53.959Z,6.75
2023-05-13T16:43:01.124Z,8.00
2023-05-13T16:48:08.093Z,10.00
2023-05-13T16:53:13.038Z,10.75
2023-05-13T16:58:18.410Z,10.00
2023-05-13T17:03:23.624Z,11.00
2023-05-13T17:08:28.743Z,9.00
2023-05-13T17:13:33.781Z,8.00
2023-05-13T17:18:39.117Z,12.25
2023-05-13T17:23:43.961Z,8.50
2023-05-13T17:28:48.923Z,9.50
2023-05-13T17:33:53.890Z,12.25
2023-05-13T17:38:58.955Z,8.50
2023-05-13T17:44:04.122Z,9.50
2023-05-13T17:49:09.249Z,8.50
2023-05-13T17:54:15.524Z,9.50
2023-05-13T17:59:20.182Z,10.00
2023-05-13T18:04:24.938Z,12.75
2023-05-13T18:09:29.635Z,11.50
2023-05-13T18:14:34.971Z,8.75
2023-05-13T18:19:40.040Z,10.75
2023-05-13T18:24:44.844Z,10.50
2023-05-13T18:29:50.620Z,13.00
2023-05-13T18:34:55.856Z,10.00
2023-05-13T18:40:00.806Z,8.75
2023-05-13T18:45:06.031Z,12.75
2023-05-13T18:50:11.008Z,11.00
2023-05-13T18:55:15.959Z,10.50
2023-05-13T19:00:20.944Z,9.75
2023-05-13T19:05:26.136Z,13.75
2023-05-13T19:10:33.546Z,9.25
2023-05-13T19:15:41.906Z,9.25
2023-05-13T19:20:48.025Z,12.00
2023-05-13T19:25:52.893Z,9.00
2023-05-13T19:30:58.352Z,13.50
2023-05-13T19:36:03.097Z,13.25
2023-05-13T19:41:09.004Z,9.00
2023-05-13T19:46:13.933Z,12.00
2023-05-13T19:51:19.495Z,13.75
2023-05-13T19:56:24.422Z,11.00
2023-05-13T20:01:29.288Z,12.00
2023-05-13T20:06:34.230Z,12.25
2023-05-13T20:11:38.723Z,11.75
2023-05-13T20:16:43.592Z,10.75
2023-05-13T20:21:48.796Z,12.75
2023-05-13T20:26:53.521Z,14.00
2023-05-13T20:31:58.268Z,12.75
2023-05-13T20:37:03.084Z,17.50
2023-05-13T20:42:08.097Z,13.25
2023-05-13T20:47:12.983Z,13.00
2023-05-13T20:52:18.074Z,11.25
2023-05-13T20:57:23.445Z,12.50
2023-05-13T21:02:28.638Z,12.00
2023-05-13T21:07:33.282Z,11.50
2023-05-13T21:12:38.050Z,11.25
2023-05-13T21:17:43.156Z,13.25
2023-05-13T21:22:48.715Z,13.25
2023-05-13T21:27:53.605Z,15.00
2023-05-13T21:32:58.351Z,13.75
2023-05-13T21:38:11.396Z,11.00
2023-05-13T21:43:17.090Z,11.25
2023-05-13T21:48:22.698Z,15.75
2023-05-13T21:53:27.591Z,17.00
2023-05-13T21:58:32.277Z,12.00
2023-05-13T22:03:37.203Z,17.00
2023-05-13T22:08:42.096Z,15.00
2023-05-13T22:13:47.126Z,18.50
2023-05-13T22:18:52.448Z,18.25
2023-05-13T22:23:57.420Z,23.00
2023-05-13T22:29:02.399Z,28.50
2023-05-13T22:34:07.321Z,24.00
2023-05-13T22:39:13.481Z,30.00
2023-05-13T22:44:18.142Z,28.25
2023-05-13T22:49:23.029Z,28.50
2023-05-13T22:54:27.972Z,25.50
2023-05-13T22:59:32.551Z,30.00
2023-05-13T23:04:37.507Z,31.75
2023-05-13T23:09:42.611Z,31.50
2023-05-13T23:14:47.450Z,31.00
2023-05-13T23:19:52.124Z,31.50
2023-05-13T23:24:57.159Z,31.75
2023-05-13T23:30:01.997Z,33.50
2023-05-13T23:35:07.158Z,37.00
2023-05-13T23:40:11.896Z,36.00
2023-05-13T23:45:17.394Z,35.25
2023-05-13T23:50:22.464Z,36.25
2023-05-13T23:55:27.499Z,34.00
